Time;durP1;ratioP1;P1;durP2;ratioP2;P2;SDS_P1;SDS_P2;PMS_P1;PMS_P2;Temp;Humidity;BMP_temperature;BMP_pressure;BME280_temperature;BME280_humidity;BME280_pressure;Samples;Min_cycle;Max_cycle;Signal;HPM_P1;HPM_P2
2022/04/24 00:00:04;;;;;;;11.73;8.95;;;;;;;;;;5073231;28;20044;-29
2022/04/24 00:02:30;;;;;;;15.52;9.80;;;;;;;;;;5073044;28;20518;-28
2022/04/24 00:04:56;;;;;;;10.82;9.25;;;;;;;;;;5074012;28;20079;-27
2022/04/24 00:07:22;;;;;;;11.60;9.05;;;;;;;;;;5067270;28;20040;-28
2022/04/24 00:09:48;;;;;;;9.98;9.00;;;;;;;;;;5071155;28;20032;-25
2022/04/24 00:12:18;;;;;;;10.40;9.27;;;;;;;;;;5073414;28;20052;-24
2022/04/24 00:14:45;;;;;;;11.13;8.73;;;;;;;;;;5072801;28;20040;-25
2022/04/24 00:17:11;;;;;;;11.40;8.65;;;;;;;;;;5073171;28;20037;-29
2022/04/24 00:19:37;;;;;;;11.13;9.52;;;;;;;;;;5073199;28;20032;-25
2022/04/24 00:22:03;;;;;;;9.10;8.15;;;;;;;;;;5073365;28;20036;-27
2022/04/24 00:24:29;;;;;;;10.68;9.57;;;;;;;;;;5072844;28;20037;-26
2022/04/24 00:26:55;;;;;;;9.43;8.63;;;;;;;;;;5072829;28;20052;-24
2022/04/24 00:29:22;;;;;;;9.57;8.55;;;;;;;;;;5073027;28;20040;-25
2022/04/24 00:31:48;;;;;;;9.80;8.50;;;;;;;;;;5055258;28;20363;-25
2022/04/24 00:34:14;;;;;;;10.50;9.40;;;;;;;;;;5073061;28;20036;-26
2022/04/24 00:36:40;;;;;;;9.95;8.95;;;;;;;;;;5072859;28;20040;-24
2022/04/24 00:39:06;;;;;;;10.30;8.70;;;;;;;;;;5073016;28;20548;-24
2022/04/24 00:41:32;;;;;;;9.10;8.20;;;;;;;;;;5072905;28;20493;-26
2022/04/24 00:43:58;;;;;;;9.00;8.10;;;;;;;;;;5072726;28;20363;-26
2022/04/24 00:46:40;;;;;;;9.77;8.77;;;;;;;;;;5072959;28;20547;-24
2022/04/24 00:49:06;;;;;;;9.98;8.30;;;;;;;;;;5072548;28;20032;-26
2022/04/24 00:51:32;;;;;;;9.02;8.05;;;;;;;;;;5072878;28;20037;-25
2022/04/24 00:54:00;;;;;;;9.43;8.45;;;;;;;;;;5072686;28;20051;-24
2022/04/24 00:56:30;;;;;;;9.77;8.30;;;;;;;;;;5072696;28;20040;-25
2022/04/24 00:58:57;;;;;;;11.52;8.30;;;;;;;;;;5054832;28;20402;-24
2022/04/24 01:01:23;;;;;;;12.32;8.27;;;;;;;;;;5072580;28;20040;-25
2022/04/24 01:03:49;;;;;;;9.48;8.07;;;;;;;;;;5072251;28;20040;-25
2022/04/24 01:06:15;;;;;;;9.65;8.25;;;;;;;;;;5072402;28;20386;-24
2022/04/24 01:08:42;;;;;;;10.77;8.50;;;;;;;;;;5072365;28;20041;-24
2022/04/24 01:11:08;;;;;;;10.90;8.73;;;;;;;;;;5072249;28;20513;-27
2022/04/24 01:13:34;;;;;;;10.15;8.45;;;;;;;;;;5072431;28;20033;-24
2022/04/24 01:16:00;;;;;;;9.02;8.13;;;;;;;;;;5072040;28;20482;-27
2022/04/24 01:18:27;;;;;;;9.05;8.13;;;;;;;;;;5071909;28;20047;-24
2022/04/24 01:20:53;;;;;;;10.77;8.50;;;;;;;;;;5071714;28;20036;-24
2022/04/24 01:23:19;;;;;;;9.27;8.00;;;;;;;;;;5071755;28;20110;-25
2022/04/24 01:25:45;;;;;;;9.68;8.68;;;;;;;;;;5071164;28;20448;-27
2022/04/24 01:28:11;;;;;;;8.95;8.05;;;;;;;;;;5071989;28;20048;-25
2022/04/24 01:30:37;;;;;;;9.20;8.00;;;;;;;;;;5071999;28;20037;-27
2022/04/24 01:33:03;;;;;;;8.73;7.82;;;;;;;;;;5071913;28;20047;-24
2022/04/24 01:35:30;;;;;;;9.10;7.85;;;;;;;;;;5071580;28;20049;-25
2022/04/24 01:37:58;;;;;;;8.65;7.75;;;;;;;;;;5071078;28;20059;-25
2022/04/24 01:40:25;;;;;;;9.85;8.80;;;;;;;;;;5071753;28;20482;-25
2022/04/24 01:42:51;;;;;;;9.60;8.60;;;;;;;;;;5071469;28;20044;-25
2022/04/24 01:45:17;;;;;;;9.45;7.93;;;;;;;;;;5071522;28;20385;-26
2022/04/24 01:47:43;;;;;;;10.15;8.57;;;;;;;;;;5071899;28;20506;-24
2022/04/24 01:50:09;;;;;;;8.45;7.32;;;;;;;;;;5071925;28;20478;-25
2022/04/24 01:52:35;;;;;;;9.35;8.40;;;;;;;;;;5071811;28;20494;-25
2022/04/24 01:55:01;;;;;;;9.80;8.07;;;;;;;;;;5071565;28;20122;-25
2022/04/24 01:57:27;;;;;;;8.98;8.02;;;;;;;;;;5071779;28;20072;-25
2022/04/24 01:59:53;;;;;;;9.30;8.40;;;;;;;;;;5071335;28;20044;-24
2022/04/24 02:02:19;;;;;;;9.52;8.57;;;;;;;;;;5071513;28;20044;-25
2022/04/24 02:04:45;;;;;;;9.43;8.40;;;;;;;;;;5071165;28;20159;-24
2022/04/24 02:07:11;;;;;;;9.20;8.30;;;;;;;;;;5071112;28;20052;-27
2022/04/24 02:09:39;;;;;;;9.57;7.90;;;;;;;;;;5071403;28;20408;-25
2022/04/24 02:12:05;;;;;;;10.85;8.00;;;;;;;;;;5071638;28;20044;-24
2022/04/24 02:14:32;;;;;;;11.40;8.82;;;;;;;;;;5071302;28;20137;-26
2022/04/24 02:16:58;;;;;;;9.07;7.80;;;;;;;;;;5071372;28;20055;-26
2022/04/24 02:19:24;;;;;;;10.38;7.90;;;;;;;;;;5071322;28;20425;-25
2022/04/24 02:21:50;;;;;;;9.75;7.88;;;;;;;;;;5070932;28;20098;-26
2022/04/24 02:24:17;;;;;;;8.68;7.85;;;;;;;;;;5071539;28;20032;-25
2022/04/24 02:26:43;;;;;;;8.90;8.07;;;;;;;;;;5053413;28;20043;-26
2022/04/24 02:29:09;;;;;;;10.27;8.52;;;;;;;;;;5071683;28;20036;-27
2022/04/24 02:31:35;;;;;;;9.00;8.07;;;;;;;;;;5072289;28;20042;-30
2022/04/24 02:34:02;;;;;;;9.30;8.30;;;;;;;;;;5071960;28;20037;-24
2022/04/24 02:36:28;;;;;;;9.52;8.57;;;;;;;;;;5072819;28;20486;-25
2022/04/24 02:38:54;;;;;;;11.27;8.55;;;;;;;;;;5074994;28;20076;-25
2022/04/24 02:41:20;;;;;;;9.20;8.20;;;;;;;;;;5075129;28;20371;-24
2022/04/24 02:43:46;;;;;;;9.27;8.30;;;;;;;;;;5075177;28;20040;-26
2022/04/24 02:46:12;;;;;;;8.50;7.70;;;;;;;;;;5075102;28;20051;-25
2022/04/24 02:48:38;;;;;;;10.63;8.20;;;;;;;;;;5074935;28;20542;-25
2022/04/24 02:51:04;;;;;;;9.07;8.18;;;;;;;;;;5074479;28;20097;-27
2022/04/24 02:53:30;;;;;;;10.32;8.60;;;;;;;;;;5075164;28;20083;-25
2022/04/24 02:55:56;;;;;;;9.10;8.18;;;;;;;;;;5057335;28;20504;-26
2022/04/24 02:58:22;;;;;;;8.50;7.70;;;;;;;;;;5074754;28;20040;-26
2022/04/24 03:00:52;;;;;;;9.95;8.40;;;;;;;;;;5074905;28;20037;-25
2022/04/24 03:03:18;;;;;;;8.55;7.75;;;;;;;;;;5074856;28;20033;-26
2022/04/24 03:05:45;;;;;;;8.90;8.00;;;;;;;;;;5074479;28;20120;-26
2022/04/24 03:08:12;;;;;;;8.85;7.97;;;;;;;;;;5074432;28;20049;-26
2022/04/24 03:10:38;;;;;;;10.52;7.88;;;;;;;;;;5074553;28;20496;-27
2022/04/24 03:13:04;;;;;;;8.82;7.50;;;;;;;;;;5074280;28;20127;-25
2022/04/24 03:15:30;;;;;;;7.85;7.05;;;;;;;;;;5074371;28;20040;-25
2022/04/24 03:17:56;;;;;;;8.43;7.60;;;;;;;;;;5074615;28;20502;-25
2022/04/24 03:20:22;;;;;;;8.40;7.50;;;;;;;;;;5074389;28;20058;-26
2022/04/24 03:22:49;;;;;;;11.25;7.72;;;;;;;;;;5056156;28;20085;-24
2022/04/24 03:25:16;;;;;;;8.30;7.50;;;;;;;;;;5074166;28;20080;-26
2022/04/24 03:27:42;;;;;;;7.93;7.13;;;;;;;;;;5073797;28;20037;-25
2022/04/24 03:30:12;;;;;;;8.18;7.38;;;;;;;;;;5073696;28;20072;-25
2022/04/24 03:32:39;;;;;;;9.32;8.30;;;;;;;;;;5074401;28;20123;-25
2022/04/24 03:35:06;;;;;;;10.25;7.30;;;;;;;;;;5056208;28;20101;-27
2022/04/24 03:37:32;;;;;;;8.40;7.60;;;;;;;;;;5073853;28;20463;-24
2022/04/24 03:39:59;;;;;;;8.38;7.57;;;;;;;;;;5073629;28;20044;-25
2022/04/24 03:42:26;;;;;;;8.20;7.40;;;;;;;;;;5056285;28;20401;-26
2022/04/24 03:44:55;;;;;;;8.23;7.40;;;;;;;;;;5073946;28;20040;-24
2022/04/24 03:47:21;;;;;;;10.38;8.00;;;;;;;;;;5073451;28;20105;-25
2022/04/24 03:49:47;;;;;;;9.25;7.93;;;;;;;;;;5073542;28;20494;-26
2022/04/24 03:52:14;;;;;;;8.05;6.90;;;;;;;;;;5073749;28;20094;-27
2022/04/24 03:54:40;;;;;;;13.77;8.48;;;;;;;;;;5074220;28;20354;-25
2022/04/24 03:57:06;;;;;;;9.45;7.65;;;;;;;;;;5073558;28;20465;-27
2022/04/24 03:59:32;;;;;;;8.75;7.85;;;;;;;;;;5073619;28;20406;-26
2022/04/24 04:01:58;;;;;;;8.48;7.57;;;;;;;;;;5073543;28;20040;-27
2022/04/24 04:04:25;;;;;;;9.13;7.82;;;;;;;;;;5073578;28;20394;-25
2022/04/24 04:06:51;;;;;;;8.23;7.38;;;;;;;;;;5073665;28;20036;-24
2022/04/24 04:09:17;;;;;;;9.73;7.70;;;;;;;;;;5073122;28;20170;-26
2022/04/24 04:11:43;;;;;;;9.45;7.80;;;;;;;;;;5073721;28;20033;-25
2022/04/24 04:14:10;;;;;;;8.90;7.65;;;;;;;;;;5073613;28;20055;-25
2022/04/24 04:16:36;;;;;;;9.30;8.40;;;;;;;;;;5073165;28;20127;-26
2022/04/24 04:19:02;;;;;;;8.82;7.93;;;;;;;;;;5073001;28;20041;-26
2022/04/24 04:21:28;;;;;;;8.65;7.72;;;;;;;;;;5056380;28;20045;-26
2022/04/24 04:23:54;;;;;;;10.73;8.52;;;;;;;;;;5054114;28;20037;-25
2022/04/24 04:26:20;;;;;;;12.75;8.35;;;;;;;;;;5053824;28;20505;-26
2022/04/24 04:28:46;;;;;;;8.50;7.68;;;;;;;;;;5052952;28;20044;-26
2022/04/24 04:31:17;;;;;;;9.48;8.38;;;;;;;;;;5053637;28;20037;-25
2022/04/24 04:33:43;;;;;;;10.25;8.65;;;;;;;;;;5053554;28;20041;-27
2022/04/24 04:36:10;;;;;;;9.07;8.18;;;;;;;;;;5052878;28;20403;-25
2022/04/24 04:38:36;;;;;;;9.23;8.00;;;;;;;;;;5052644;28;20094;-27
2022/04/24 04:41:03;;;;;;;8.98;8.05;;;;;;;;;;5052727;28;20083;-26
2022/04/24 04:43:30;;;;;;;10.57;9.32;;;;;;;;;;5054813;28;20040;-26
2022/04/24 04:45:56;;;;;;;10.45;8.63;;;;;;;;;;5072398;28;20056;-24
2022/04/24 04:48:22;;;;;;;10.27;8.90;;;;;;;;;;5072514;28;20129;-28
2022/04/24 04:50:48;;;;;;;9.82;8.07;;;;;;;;;;5072775;28;20044;-26
2022/04/24 04:53:14;;;;;;;10.27;8.18;;;;;;;;;;5062185;28;20048;-25
2022/04/24 04:55:42;;;;;;;9.35;8.35;;;;;;;;;;5034216;28;20044;-27
2022/04/24 04:58:08;;;;;;;10.80;8.68;;;;;;;;;;5052205;28;20045;-25
2022/04/24 05:00:34;;;;;;;9.82;8.45;;;;;;;;;;5050805;28;20044;-26
2022/04/24 05:03:00;;;;;;;9.35;8.35;;;;;;;;;;5033910;28;20449;-26
2022/04/24 05:05:26;;;;;;;12.25;8.57;;;;;;;;;;5062841;28;20505;-25
2022/04/24 05:07:52;;;;;;;10.15;8.98;;;;;;;;;;5072092;28;20103;-27
2022/04/24 05:10:18;;;;;;;9.95;8.73;;;;;;;;;;5072474;28;20044;-25
2022/04/24 05:12:45;;;;;;;10.57;8.88;;;;;;;;;;5073045;28;20039;-26
2022/04/24 05:15:13;;;;;;;10.23;8.75;;;;;;;;;;5054122;28;20040;-25
2022/04/24 05:17:39;;;;;;;10.73;8.43;;;;;;;;;;5071980;28;20040;-25
2022/04/24 05:20:06;;;;;;;9.88;8.75;;;;;;;;;;5071782;28;20174;-26
2022/04/24 05:22:33;;;;;;;11.48;8.43;;;;;;;;;;5071552;28;20098;-26
2022/04/24 05:24:59;;;;;;;11.15;8.68;;;;;;;;;;5071790;28;20090;-26
2022/04/24 05:27:26;;;;;;;9.85;8.32;;;;;;;;;;5071729;28;20044;-26
2022/04/24 05:29:52;;;;;;;8.77;7.82;;;;;;;;;;5053712;28;20044;-25
2022/04/24 05:32:18;;;;;;;8.98;8.07;;;;;;;;;;5071242;28;20041;-25
2022/04/24 05:34:45;;;;;;;9.07;8.05;;;;;;;;;;5071515;28;20047;-26
2022/04/24 05:37:11;;;;;;;9.35;8.32;;;;;;;;;;5053540;28;20036;-25
2022/04/24 05:39:38;;;;;;;9.05;8.15;;;;;;;;;;5071153;28;20124;-27
2022/04/24 05:42:04;;;;;;;9.65;8.25;;;;;;;;;;5071678;28;20135;-26
2022/04/24 05:44:30;;;;;;;9.70;8.70;;;;;;;;;;5071304;28;20041;-25
2022/04/24 05:46:56;;;;;;;10.60;8.25;;;;;;;;;;5053135;28;20087;-26
2022/04/24 05:49:22;;;;;;;11.48;8.38;;;;;;;;;;5070739;28;20041;-26
2022/04/24 05:51:48;;;;;;;9.20;8.27;;;;;;;;;;5071061;28;20094;-25
2022/04/24 05:54:15;;;;;;;8.43;7.60;;;;;;;;;;5070824;28;20181;-26
2022/04/24 05:56:42;;;;;;;9.35;8.35;;;;;;;;;;5071236;28;20261;-25
2022/04/24 05:59:08;;;;;;;10.52;7.88;;;;;;;;;;5071269;28;20048;-25
2022/04/24 06:01:35;;;;;;;9.48;8.10;;;;;;;;;;5071370;28;20575;-25
2022/04/24 06:04:01;;;;;;;8.52;7.63;;;;;;;;;;5070873;28;20037;-25
2022/04/24 06:06:30;;;;;;;9.45;8.32;;;;;;;;;;5071278;28;20040;-28
2022/04/24 06:08:57;;;;;;;9.00;8.05;;;;;;;;;;5071301;28;20584;-25
2022/04/24 06:11:23;;;;;;;9.85;8.15;;;;;;;;;;5072429;28;20497;-25
2022/04/24 06:13:49;;;;;;;7.90;7.13;;;;;;;;;;5075442;28;20138;-26
2022/04/24 06:16:15;;;;;;;8.13;7.32;;;;;;;;;;5075202;28;20059;-25
2022/04/24 06:18:41;;;;;;;10.48;8.13;;;;;;;;;;5074868;28;20044;-25
2022/04/24 06:21:08;;;;;;;8.80;7.60;;;;;;;;;;5074934;28;20036;-25
2022/04/24 06:23:34;;;;;;;9.10;7.53;;;;;;;;;;5058645;28;20040;-25
2022/04/24 06:26:00;;;;;;;8.13;7.30;;;;;;;;;;5055152;28;20059;-25
2022/04/24 06:28:26;;;;;;;11.07;7.47;;;;;;;;;;5071631;28;20043;-26
2022/04/24 06:30:52;;;;;;;8.73;7.65;;;;;;;;;;5054888;28;20047;-27
2022/04/24 06:33:18;;;;;;;9.70;7.70;;;;;;;;;;5054846;28;20033;-25
2022/04/24 06:35:45;;;;;;;8.43;7.57;;;;;;;;;;5075085;28;20497;-27
2022/04/24 06:38:11;;;;;;;9.32;7.22;;;;;;;;;;5074478;28;20073;-26
2022/04/24 06:40:38;;;;;;;11.63;8.25;;;;;;;;;;5074623;28;20040;-26
2022/04/24 06:43:08;;;;;;;8.43;7.43;;;;;;;;;;5074869;28;20123;-25
2022/04/24 06:45:41;;;;;;;8.20;7.25;;;;;;;;;;5074551;28;20036;-28
2022/04/24 06:48:11;;;;;;;8.02;7.05;;;;;;;;;;5075229;28;20040;-26
2022/04/24 06:50:38;;;;;;;8.20;6.88;;;;;;;;;;5075316;28;20394;-26
2022/04/24 06:53:05;;;;;;;8.73;7.63;;;;;;;;;;5075116;28;20089;-26
2022/04/24 06:55:33;;;;;;;9.35;7.25;;;;;;;;;;5075078;28;20040;-26
2022/04/24 06:58:00;;;;;;;7.93;7.05;;;;;;;;;;5074953;28;20041;-26
2022/04/24 07:00:27;;;;;;;8.20;6.93;;;;;;;;;;5074850;28;20044;-26
2022/04/24 07:02:53;;;;;;;8.77;6.80;;;;;;;;;;5074686;28;20040;-27
2022/04/24 07:05:20;;;;;;;7.78;6.82;;;;;;;;;;5075605;28;20036;-26
2022/04/24 07:07:46;;;;;;;8.38;6.60;;;;;;;;;;5074962;28;20048;-26
2022/04/24 07:10:13;;;;;;;7.55;6.80;;;;;;;;;;5074512;28;20040;-26
2022/04/24 07:12:45;;;;;;;9.32;7.05;;;;;;;;;;5074382;28;20036;-25
2022/04/24 07:15:13;;;;;;;9.80;7.82;;;;;;;;;;5073968;28;20494;-26
2022/04/24 07:17:39;;;;;;;8.07;7.15;;;;;;;;;;5074420;28;20484;-27
2022/04/24 07:20:06;;;;;;;7.85;6.95;;;;;;;;;;5074173;28;20048;-26
2022/04/24 07:22:40;;;;;;;9.30;6.60;;;;;;;;;;5073088;28;20462;-26
2022/04/24 07:25:07;;;;;;;8.05;6.32;;;;;;;;;;5074101;28;20040;-25
2022/04/24 07:27:33;;;;;;;7.80;7.00;;;;;;;;;;5074002;28;20075;-25
2022/04/24 07:29:59;;;;;;;9.50;6.72;;;;;;;;;;5073988;28;20033;-25
2022/04/24 07:32:25;;;;;;;9.48;7.07;;;;;;;;;;5073969;28;20044;-25
2022/04/24 07:34:51;;;;;;;9.77;7.07;;;;;;;;;;5073952;28;20036;-26
2022/04/24 07:37:17;;;;;;;9.50;7.40;;;;;;;;;;5055545;28;20516;-25
2022/04/24 07:39:43;;;;;;;7.90;7.07;;;;;;;;;;5073655;28;20452;-25
2022/04/24 07:42:09;;;;;;;8.52;6.78;;;;;;;;;;5073836;28;20046;-25
2022/04/24 07:44:36;;;;;;;8.35;6.70;;;;;;;;;;5073307;28;20044;-25
2022/04/24 07:47:02;;;;;;;8.70;7.00;;;;;;;;;;5073780;28;20113;-25
2022/04/24 07:49:28;;;;;;;8.85;6.72;;;;;;;;;;5073511;28;20047;-26
2022/04/24 07:51:54;;;;;;;7.20;6.40;;;;;;;;;;5073549;28;20391;-26
2022/04/24 07:54:20;;;;;;;7.43;6.25;;;;;;;;;;5073545;28;20047;-26
2022/04/24 07:56:46;;;;;;;8.10;6.75;;;;;;;;;;5073813;28;20051;-26
2022/04/24 07:59:12;;;;;;;7.00;6.22;;;;;;;;;;5055077;28;20127;-25
2022/04/24 08:01:38;;;;;;;6.70;6.00;;;;;;;;;;5073466;28;20048;-26
2022/04/24 08:04:04;;;;;;;7.32;6.15;;;;;;;;;;5073130;28;20047;-27
2022/04/24 08:06:30;;;;;;;6.15;5.55;;;;;;;;;;5055405;28;20040;-27
2022/04/24 08:08:56;;;;;;;7.32;5.85;;;;;;;;;;5073000;28;20040;-25
2022/04/24 08:11:22;;;;;;;7.03;5.72;;;;;;;;;;5055248;28;20048;-27
2022/04/24 08:13:48;;;;;;;7.25;6.40;;;;;;;;;;5073104;28;20402;-27
2022/04/24 08:16:14;;;;;;;7.78;5.45;;;;;;;;;;5062726;28;20037;-25
2022/04/24 08:18:40;;;;;;;8.52;5.82;;;;;;;;;;5052937;28;20495;-25
2022/04/24 08:21:06;;;;;;;7.60;5.72;;;;;;;;;;5053261;28;20037;-25
2022/04/24 08:23:33;;;;;;;6.18;5.05;;;;;;;;;;5052997;28;20048;-27
2022/04/24 08:25:59;;;;;;;6.90;5.50;;;;;;;;;;5052800;28;20402;-27
2022/04/24 08:28:25;;;;;;;5.97;5.38;;;;;;;;;;5052463;28;20037;-26
2022/04/24 08:30:51;;;;;;;7.25;5.25;;;;;;;;;;5052849;28;20037;-26
2022/04/24 08:33:18;;;;;;;5.38;4.88;;;;;;;;;;5052503;28;20037;-26
2022/04/24 08:35:45;;;;;;;5.90;4.80;;;;;;;;;;5052144;28;20051;-26
2022/04/24 08:38:11;;;;;;;6.63;5.05;;;;;;;;;;5052342;28;20392;-26
2022/04/24 08:40:37;;;;;;;5.97;4.53;;;;;;;;;;5052560;28;20051;-25
2022/04/24 08:43:04;;;;;;;7.60;4.47;;;;;;;;;;5052516;28;20123;-28
2022/04/24 08:45:31;;;;;;;6.25;4.60;;;;;;;;;;5052330;28;20478;-26
2022/04/24 08:47:57;;;;;;;5.18;3.90;;;;;;;;;;5052265;28;20107;-25
2022/04/24 08:50:27;;;;;;;5.13;4.38;;;;;;;;;;5052161;28;20051;-26
2022/04/24 08:52:56;;;;;;;5.10;4.60;;;;;;;;;;5052377;28;20506;-25
2022/04/24 08:55:22;;;;;;;6.55;3.97;;;;;;;;;;5052547;28;20511;-26
2022/04/24 08:57:48;;;;;;;4.20;3.90;;;;;;;;;;5072225;28;20482;-26
2022/04/24 09:00:15;;;;;;;5.07;4.10;;;;;;;;;;5071720;28;20036;-25
2022/04/24 09:02:42;;;;;;;6.07;4.00;;;;;;;;;;5071899;28;20398;-28
2022/04/24 09:05:08;;;;;;;7.88;4.15;;;;;;;;;;5071687;28;20086;-26
2022/04/24 09:07:34;;;;;;;3.90;3.60;;;;;;;;;;5072397;28;20522;-27
2022/04/24 09:10:03;;;;;;;3.60;3.10;;;;;;;;;;5053747;28;20047;-27
2022/04/24 09:12:29;;;;;;;3.90;3.53;;;;;;;;;;5070884;28;20128;-26
2022/04/24 09:14:56;;;;;;;7.75;3.72;;;;;;;;;;5069361;28;20078;-26
2022/04/24 09:17:26;;;;;;;3.72;3.05;;;;;;;;;;5070537;28;20044;-27
2022/04/24 09:19:53;;;;;;;3.72;3.28;;;;;;;;;;5070964;28;20048;-27
2022/04/24 09:22:20;;;;;;;3.88;3.00;;;;;;;;;;5071801;28;20051;-27
2022/04/24 09:24:50;;;;;;;3.83;3.13;;;;;;;;;;5069765;28;20040;-27
2022/04/24 09:27:42;;;;;;;6.32;3.20;;;;;;;;;;5067607;28;20155;-33
2022/04/24 09:30:15;;;;;;;5.30;2.92;;;;;;;;;;5067143;28;20044;-29
2022/04/24 09:32:47;;;;;;;3.75;2.95;;;;;;;;;;5071510;28;20486;-28
2022/04/24 09:35:23;;;;;;;3.33;2.90;;;;;;;;;;5071144;28;20523;-27
2022/04/24 09:37:49;;;;;;;4.43;2.92;;;;;;;;;;5070835;28;20123;-29
2022/04/24 09:40:15;;;;;;;3.88;2.80;;;;;;;;;;5061408;28;20037;-28
2022/04/24 09:42:51;;;;;;;3.83;3.00;;;;;;;;;;5062424;28;20571;-28
2022/04/24 09:45:23;;;;;;;3.50;3.20;;;;;;;;;;5071102;28;20075;-28
2022/04/24 09:47:56;;;;;;;4.47;2.93;;;;;;;;;;5070797;28;20040;-27
2022/04/24 09:50:22;;;;;;;3.27;2.97;;;;;;;;;;5071001;28;20338;-29
2022/04/24 09:52:49;;;;;;;3.20;2.90;;;;;;;;;;5058900;28;20033;-29
2022/04/24 09:55:15;;;;;;;3.10;2.80;;;;;;;;;;5070935;28;20047;-28
2022/04/24 09:57:42;;;;;;;3.47;3.15;;;;;;;;;;5072820;28;20047;-28
2022/04/24 10:00:08;;;;;;;5.03;2.97;;;;;;;;;;5072111;28;20044;-27
2022/04/24 10:02:35;;;;;;;3.78;2.90;;;;;;;;;;5071358;28;20167;-26
2022/04/24 10:05:02;;;;;;;6.70;2.88;;;;;;;;;;5057027;28;20041;-28
2022/04/24 10:07:30;;;;;;;4.57;2.78;;;;;;;;;;5052272;28;20099;-27
2022/04/24 10:09:57;;;;;;;3.88;2.92;;;;;;;;;;5067680;28;20083;-27
2022/04/24 10:12:24;;;;;;;3.03;2.72;;;;;;;;;;5071262;28;20041;-27
2022/04/24 10:14:56;;;;;;;3.38;2.88;;;;;;;;;;5071282;28;20504;-27
2022/04/24 10:17:28;;;;;;;3.47;2.80;;;;;;;;;;5071528;28;20044;-28
2022/04/24 10:20:15;;;;;;;4.05;2.70;;;;;;;;;;5070471;28;20063;-29
2022/04/24 10:22:44;;;;;;;3.35;3.05;;;;;;;;;;5057685;28;20040;-29
2022/04/24 10:25:12;;;;;;;6.50;2.90;;;;;;;;;;5053051;28;20385;-29
2022/04/24 10:27:48;;;;;;;6.35;3.65;;;;;;;;;;5071093;28;20033;-29
2022/04/24 10:30:17;;;;;;;4.53;3.00;;;;;;;;;;5070948;28;20036;-29
2022/04/24 10:32:46;;;;;;;3.38;3.08;;;;;;;;;;5071039;28;20534;-28
2022/04/24 10:35:20;;;;;;;3.45;3.15;;;;;;;;;;5070950;28;20375;-27
2022/04/24 10:37:47;;;;;;;3.28;3.00;;;;;;;;;;5070591;28;20048;-28
2022/04/24 10:40:18;;;;;;;5.60;3.38;;;;;;;;;;5070779;28;20066;-27
2022/04/24 10:42:44;;;;;;;3.95;3.53;;;;;;;;;;5070937;28;20037;-28
2022/04/24 10:45:14;;;;;;;3.10;2.75;;;;;;;;;;5071551;28;20093;-28
2022/04/24 10:47:45;;;;;;;3.75;3.00;;;;;;;;;;5053584;28;20044;-29
2022/04/24 10:50:11;;;;;;;3.50;3.20;;;;;;;;;;5052080;28;20394;-28
2022/04/24 10:52:44;;;;;;;3.38;2.50;;;;;;;;;;5050882;28;20079;-28
2022/04/24 10:55:12;;;;;;;3.17;2.58;;;;;;;;;;5050734;28;20037;-28
2022/04/24 10:57:45;;;;;;;2.70;2.30;;;;;;;;;;5052645;28;20041;-28
2022/04/24 11:00:34;;;;;;;6.57;2.78;;;;;;;;;;5069871;28;20036;-28
2022/04/24 11:03:11;;;;;;;2.70;2.50;;;;;;;;;;5074451;28;20036;-28
2022/04/24 11:05:39;;;;;;;5.32;2.50;;;;;;;;;;5058877;28;20086;-29
2022/04/24 11:08:06;;;;;;;3.83;2.67;;;;;;;;;;5074162;28;20124;-28
2022/04/24 11:10:38;;;;;;;2.33;2.08;;;;;;;;;;5073872;28;20041;-28
2022/04/24 11:13:05;;;;;;;3.22;2.30;;;;;;;;;;5065806;28;20509;-29
2022/04/24 11:15:31;;;;;;;3.95;2.60;;;;;;;;;;5072998;28;20041;-28
2022/04/24 11:17:57;;;;;;;3.17;2.50;;;;;;;;;;5064853;28;20718;-33
2022/04/24 11:20:27;;;;;;;2.72;2.53;;;;;;;;;;5063290;28;20032;-32
2022/04/24 11:22:54;;;;;;;6.05;2.60;;;;;;;;;;5065797;28;20184;-32
2022/04/24 11:25:22;;;;;;;2.90;2.58;;;;;;;;;;5062586;28;20394;-29
2022/04/24 11:28:06;;;;;;;2.30;2.10;;;;;;;;;;5043521;28;20072;-32
2022/04/24 11:30:34;;;;;;;3.15;2.65;;;;;;;;;;5066745;28;20033;-33
2022/04/24 11:33:05;;;;;;;4.88;2.47;;;;;;;;;;5047079;28;20036;-28
2022/04/24 11:35:33;;;;;;;3.60;2.55;;;;;;;;;;5058359;28;20036;-34
2022/04/24 11:38:00;;;;;;;2.92;2.58;;;;;;;;;;5064706;28;20098;-28
2022/04/24 11:40:28;;;;;;;2.72;2.50;;;;;;;;;;5065665;28;20033;-28
2022/04/24 11:43:02;;;;;;;2.58;2.35;;;;;;;;;;5066093;28;20042;-30
2022/04/24 11:51:03;;;;;;;2.83;2.40;;;;;;;;;;5053282;28;20095;-28
2022/04/24 11:53:29;;;;;;;3.22;2.72;;;;;;;;;;5053367;28;20048;-29
2022/04/24 11:56:02;;;;;;;3.38;2.55;;;;;;;;;;5053841;28;20076;-29
2022/04/24 11:58:29;;;;;;;;;;;;;;;;;;5055463;28;20108;-31
2022/04/24 12:00:56;;;;;;;3.95;2.60;;;;;;;;;;5053575;28;20335;-35
2022/04/24 12:03:23;;;;;;;2.10;2.00;;;;;;;;;;5039800;28;20094;-29
2022/04/24 12:05:58;;;;;;;3.38;2.70;;;;;;;;;;5060830;28;20116;-28
2022/04/24 12:08:25;;;;;;;2.78;2.42;;;;;;;;;;5054727;28;20045;-28
2022/04/24 12:10:51;;;;;;;2.95;2.45;;;;;;;;;;5057143;28;20029;-32
2022/04/24 12:13:26;;;;;;;3.10;2.80;;;;;;;;;;5045473;28;20119;-30
2022/04/24 12:15:53;;;;;;;4.90;2.47;;;;;;;;;;5051535;28;20048;-34
2022/04/24 12:18:23;;;;;;;3.45;2.63;;;;;;;;;;5059938;28;20239;-27
2022/04/24 12:20:50;;;;;;;3.83;2.38;;;;;;;;;;5065454;28;20056;-30
2022/04/24 12:23:17;;;;;;;3.70;3.40;;;;;;;;;;5047608;28;20502;-29
2022/04/24 12:25:51;;;;;;;3.85;2.70;;;;;;;;;;5061152;28;20032;-33
2022/04/24 12:28:39;;;;;;;3.03;2.42;;;;;;;;;;5058215;28;20037;-32
2022/04/24 12:31:07;;;;;;;3.00;2.28;;;;;;;;;;5055585;28;20430;-30
2022/04/24 12:33:44;;;;;;;2.78;2.47;;;;;;;;;;5067753;28;20036;-30
2022/04/24 12:36:15;;;;;;;2.47;2.17;;;;;;;;;;5057249;28;20055;-31
2022/04/24 12:38:53;;;;;;;2.47;2.28;;;;;;;;;;5068624;28;20097;-29
2022/04/24 12:41:21;;;;;;;3.25;2.95;;;;;;;;;;5058377;28;20041;-34
2022/04/24 12:43:48;;;;;;;3.05;2.75;;;;;;;;;;5054930;28;20119;-28
2022/04/24 12:46:14;;;;;;;5.25;2.28;;;;;;;;;;5052423;28;20041;-30
2022/04/24 12:48:53;;;;;;;3.55;2.70;;;;;;;;;;5052561;28;20033;-29
2022/04/24 12:51:23;;;;;;;2.60;2.40;;;;;;;;;;5052259;28;20126;-30
2022/04/24 12:53:53;;;;;;;4.05;2.10;;;;;;;;;;5052506;28;20060;-27
2022/04/24 12:56:19;;;;;;;2.80;2.13;;;;;;;;;;5052434;28;20102;-27
2022/04/24 12:58:47;;;;;;;2.53;2.10;;;;;;;;;;5052021;28;20044;-29
2022/04/24 13:01:16;;;;;;;3.15;2.42;;;;;;;;;;5051822;28;20390;-32
2022/04/24 13:03:46;;;;;;;2.63;1.90;;;;;;;;;;5070069;28;20652;-34
2022/04/24 13:06:13;;;;;;;2.15;1.98;;;;;;;;;;5033260;28;20048;-32
2022/04/24 13:08:39;;;;;;;4.43;2.50;;;;;;;;;;5040522;28;20033;-29
2022/04/24 13:11:06;;;;;;;5.30;2.25;;;;;;;;;;5069460;28;20041;-33
2022/04/24 13:13:33;;;;;;;3.03;2.25;;;;;;;;;;5043091;28;20029;-30
2022/04/24 13:18:44;;;;;;;3.88;2.78;;;;;;;;;;5056078;28;20115;-34
2022/04/24 13:21:10;;;;;;;4.13;2.80;;;;;;;;;;5051278;28;20707;-33
2022/04/24 13:23:36;;;;;;;2.60;2.33;;;;;;;;;;5056005;28;20123;-31
2022/04/24 13:26:03;;;;;;;3.42;2.22;;;;;;;;;;5033545;28;20063;-33
2022/04/24 13:28:30;;;;;;;3.72;2.40;;;;;;;;;;5053897;28;20098;-32
2022/04/24 13:30:56;;;;;;;3.80;2.60;;;;;;;;;;5070366;28;20052;-33
2022/04/24 13:33:22;;;;;;;2.85;2.50;;;;;;;;;;5069820;28;20465;-33
2022/04/24 13:35:48;;;;;;;2.65;2.30;;;;;;;;;;5071237;28;20097;-31
2022/04/24 13:38:18;;;;;;;2.70;2.17;;;;;;;;;;5071204;28;20047;-31
2022/04/24 13:40:44;;;;;;;3.13;2.05;;;;;;;;;;5070011;28;20458;-31
2022/04/24 13:43:11;;;;;;;3.28;2.15;;;;;;;;;;5070652;28;20048;-32
2022/04/24 13:45:37;;;;;;;3.72;1.88;;;;;;;;;;5079622;28;20043;-33
2022/04/24 13:48:04;;;;;;;2.60;2.05;;;;;;;;;;5068991;28;20040;-33
2022/04/24 13:50:30;;;;;;;3.42;2.45;;;;;;;;;;5057692;28;20078;-35
2022/04/24 13:52:57;;;;;;;4.57;2.33;;;;;;;;;;5066932;28;20448;-33
2022/04/24 13:55:23;;;;;;;3.45;2.40;;;;;;;;;;5051987;28;20037;-33
2022/04/24 13:57:49;;;;;;;3.58;2.65;;;;;;;;;;5048481;28;20050;-31
2022/04/24 14:00:16;;;;;;;3.58;2.20;;;;;;;;;;5061674;28;20127;-35
2022/04/24 14:02:42;;;;;;;5.03;2.72;;;;;;;;;;5039233;28;20037;-32
2022/04/24 14:05:09;;;;;;;2.92;2.63;;;;;;;;;;5062672;28;20604;-31
2022/04/24 14:07:36;;;;;;;2.80;2.60;;;;;;;;;;5058361;28;20088;-33
2022/04/24 14:10:03;;;;;;;3.95;2.80;;;;;;;;;;5071788;28;20123;-33
2022/04/24 14:12:29;;;;;;;6.35;3.05;;;;;;;;;;5070426;28;20065;-32
2022/04/24 14:14:55;;;;;;;3.85;2.80;;;;;;;;;;5057035;28;20032;-32
2022/04/24 14:17:21;;;;;;;4.18;2.67;;;;;;;;;;5059748;28;20106;-32
2022/04/24 14:19:47;;;;;;;2.95;2.40;;;;;;;;;;5052218;28;20409;-32
2022/04/24 14:22:13;;;;;;;4.13;2.60;;;;;;;;;;5060250;28;20063;-32
2022/04/24 14:24:39;;;;;;;3.10;2.60;;;;;;;;;;5070339;28;20044;-32
2022/04/24 14:27:05;;;;;;;4.45;2.88;;;;;;;;;;5070216;28;20041;-31
2022/04/24 14:29:31;;;;;;;3.30;2.55;;;;;;;;;;5070856;28;20120;-30
2022/04/24 14:31:59;;;;;;;3.10;2.55;;;;;;;;;;5070585;28;20405;-32
2022/04/24 14:34:25;;;;;;;3.65;2.47;;;;;;;;;;5073410;28;20056;-30
2022/04/24 14:36:52;;;;;;;3.92;2.55;;;;;;;;;;5073173;28;20119;-31
2022/04/24 14:39:18;;;;;;;2.90;2.70;;;;;;;;;;5075110;28;20041;-32
2022/04/24 14:41:44;;;;;;;3.22;2.58;;;;;;;;;;5074105;28;20045;-31
2022/04/24 14:44:11;;;;;;;4.22;2.60;;;;;;;;;;5064515;28;20478;-31
2022/04/24 14:57:38;;;;;;;3.13;2.80;;;;;;;;;;5061081;28;20102;-30
2022/04/24 15:00:06;;;;;;;4.00;3.10;;;;;;;;;;5058737;28;20040;-31